sensor_id;sensor_type;location;lat;lon;timestamp;P1;durP1;ratioP1;P2;durP2;ratioP2
25948;SDS011;13961;51.178;4.448;2023-03-14T00:02:01;6.70;;;1.00;;
25948;SDS011;13961;51.178;4.448;2023-03-14T00:04:27;7.63;;;1.20;;
25948;SDS011;13961;51.178;4.448;2023-03-14T00:06:53;2.40;;;0.82;;
25948;SDS011;13961;51.178;4.448;2023-03-14T00:09:18;6.30;;;1.20;;
25948;SDS011;13961;51.178;4.448;2023-03-14T00:11:44;5.20;;;0.80;;
25948;SDS011;13961;51.178;4.448;2023-03-14T00:14:10;3.40;;;0.80;;
25948;SDS011;13961;51.178;4.448;2023-03-14T00:16:36;4.43;;;1.08;;
25948;SDS011;13961;51.178;4.448;2023-03-14T00:19:02;4.15;;;0.73;;
25948;SDS011;13961;51.178;4.448;2023-03-14T00:21:28;3.15;;;0.80;;
25948;SDS011;13961;51.178;4.448;2023-03-14T00:23:54;9.55;;;1.20;;
25948;SDS011;13961;51.178;4.448;2023-03-14T00:26:20;5.18;;;0.75;;
25948;SDS011;13961;51.178;4.448;2023-03-14T00:28:46;5.07;;;1.10;;
25948;SDS011;13961;51.178;4.448;2023-03-14T00:31:16;5.05;;;0.75;;
25948;SDS011;13961;51.178;4.448;2023-03-14T00:33:42;3.78;;;0.60;;
25948;SDS011;13961;51.178;4.448;2023-03-14T00:36:10;7.38;;;0.95;;
25948;SDS011;13961;51.178;4.448;2023-03-14T00:38:41;2.78;;;0.70;;
25948;SDS011;13961;51.178;4.448;2023-03-14T00:41:09;4.63;;;0.73;;
25948;SDS011;13961;51.178;4.448;2023-03-14T00:43:38;5.35;;;1.02;;
25948;SDS011;13961;51.178;4.448;2023-03-14T00:46:05;5.47;;;0.82;;
25948;SDS011;13961;51.178;4.448;2023-03-14T00:48:31;5.68;;;0.70;;
25948;SDS011;13961;51.178;4.448;2023-03-14T00:50:58;3.80;;;0.85;;
25948;SDS011;13961;51.178;4.448;2023-03-14T00:53:23;4.00;;;0.85;;
25948;SDS011;13961;51.178;4.448;2023-03-14T00:55:49;6.00;;;1.08;;
25948;SDS011;13961;51.178;4.448;2023-03-14T00:58:16;5.22;;;1.00;;
25948;SDS011;13961;51.178;4.448;2023-03-14T01:00:43;3.58;;;0.88;;
25948;SDS011;13961;51.178;4.448;2023-03-14T01:03:09;4.07;;;0.88;;
25948;SDS011;13961;51.178;4.448;2023-03-14T01:05:36;6.78;;;1.08;;
25948;SDS011;13961;51.178;4.448;2023-03-14T01:08:02;10.63;;;1.38;;
25948;SDS011;13961;51.178;4.448;2023-03-14T01:10:29;5.50;;;1.27;;
25948;SDS011;13961;51.178;4.448;2023-03-14T01:12:55;6.25;;;1.10;;
25948;SDS011;13961;51.178;4.448;2023-03-14T01:15:20;6.25;;;1.10;;
25948;SDS011;13961;51.178;4.448;2023-03-14T01:17:46;5.55;;;1.00;;
25948;SDS011;13961;51.178;4.448;2023-03-14T01:20:13;6.13;;;1.10;;
25948;SDS011;13961;51.178;4.448;2023-03-14T01:22:40;5.00;;;1.35;;
25948;SDS011;13961;51.178;4.448;2023-03-14T01:25:07;5.57;;;1.25;;
25948;SDS011;13961;51.178;4.448;2023-03-14T01:27:35;6.22;;;1.20;;
25948;SDS011;13961;51.178;4.448;2023-03-14T01:30:04;6.93;;;0.90;;
25948;SDS011;13961;51.178;4.448;2023-03-14T01:32:30;6.28;;;1.20;;
25948;SDS011;13961;51.178;4.448;2023-03-14T01:34:56;7.40;;;1.20;;
25948;SDS011;13961;51.178;4.448;2023-03-14T01:37:22;7.72;;;1.23;;
25948;SDS011;13961;51.178;4.448;2023-03-14T01:39:47;6.97;;;1.13;;
25948;SDS011;13961;51.178;4.448;2023-03-14T01:42:13;7.25;;;1.17;;
25948;SDS011;13961;51.178;4.448;2023-03-14T01:44:56;8.15;;;0.90;;
25948;SDS011;13961;51.178;4.448;2023-03-14T01:47:23;6.38;;;1.17;;
25948;SDS011;13961;51.178;4.448;2023-03-14T01:49:57;8.25;;;1.17;;
25948;SDS011;13961;51.178;4.448;2023-03-14T01:52:28;10.77;;;1.63;;
25948;SDS011;13961;51.178;4.448;2023-03-14T01:55:04;6.28;;;1.13;;
25948;SDS011;13961;51.178;4.448;2023-03-14T01:57:36;9.70;;;1.30;;
25948;SDS011;13961;51.178;4.448;2023-03-14T02:00:23;8.15;;;1.05;;
25948;SDS011;13961;51.178;4.448;2023-03-14T02:02:58;8.90;;;1.13;;
25948;SDS011;13961;51.178;4.448;2023-03-14T02:05:32;8.23;;;1.20;;
25948;SDS011;13961;51.178;4.448;2023-03-14T02:08:00;5.22;;;1.05;;
25948;SDS011;13961;51.178;4.448;2023-03-14T02:10:28;6.70;;;1.17;;
25948;SDS011;13961;51.178;4.448;2023-03-14T02:12:56;6.35;;;0.88;;
25948;SDS011;13961;51.178;4.448;2023-03-14T02:15:26;7.55;;;1.05;;
25948;SDS011;13961;51.178;4.448;2023-03-14T02:17:53;7.88;;;1.27;;
25948;SDS011;13961;51.178;4.448;2023-03-14T02:22:47;4.05;;;1.10;;
25948;SDS011;13961;51.178;4.448;2023-03-14T02:25:17;5.25;;;1.08;;
25948;SDS011;13961;51.178;4.448;2023-03-14T02:27:54;7.13;;;0.80;;
25948;SDS011;13961;51.178;4.448;2023-03-14T02:30:21;4.35;;;0.98;;
25948;SDS011;13961;51.178;4.448;2023-03-14T02:32:56;8.52;;;1.10;;
25948;SDS011;13961;51.178;4.448;2023-03-14T02:35:34;4.40;;;1.05;;
25948;SDS011;13961;51.178;4.448;2023-03-14T02:38:55;5.88;;;1.00;;
25948;SDS011;13961;51.178;4.448;2023-03-14T02:41:13;2.60;;;0.80;;
25948;SDS011;13961;51.178;4.448;2023-03-14T02:43:39;7.82;;;1.08;;
25948;SDS011;13961;51.178;4.448;2023-03-14T02:46:05;3.25;;;0.63;;
25948;SDS011;13961;51.178;4.448;2023-03-14T02:48:35;5.32;;;0.77;;
25948;SDS011;13961;51.178;4.448;2023-03-14T02:51:11;4.45;;;0.80;;
25948;SDS011;13961;51.178;4.448;2023-03-14T02:53:38;5.65;;;0.90;;
25948;SDS011;13961;51.178;4.448;2023-03-14T02:56:06;4.20;;;0.80;;
25948;SDS011;13961;51.178;4.448;2023-03-14T02:58:33;5.30;;;0.90;;
25948;SDS011;13961;51.178;4.448;2023-03-14T03:00:59;4.57;;;1.08;;
25948;SDS011;13961;51.178;4.448;2023-03-14T03:03:24;5.65;;;0.80;;
25948;SDS011;13961;51.178;4.448;2023-03-14T03:05:51;4.85;;;0.60;;
25948;SDS011;13961;51.178;4.448;2023-03-14T03:08:19;3.72;;;0.82;;
25948;SDS011;13961;51.178;4.448;2023-03-14T03:10:46;5.00;;;0.82;;
25948;SDS011;13961;51.178;4.448;2023-03-14T03:13:12;3.35;;;0.68;;
25948;SDS011;13961;51.178;4.448;2023-03-14T03:15:38;5.40;;;0.80;;
25948;SDS011;13961;51.178;4.448;2023-03-14T03:18:04;5.70;;;0.90;;
25948;SDS011;13961;51.178;4.448;2023-03-14T03:20:30;2.92;;;0.82;;
25948;SDS011;13961;51.178;4.448;2023-03-14T03:22:56;6.20;;;0.85;;
25948;SDS011;13961;51.178;4.448;2023-03-14T03:25:21;4.22;;;1.27;;
25948;SDS011;13961;51.178;4.448;2023-03-14T03:27:47;3.85;;;1.05;;
25948;SDS011;13961;51.178;4.448;2023-03-14T03:30:13;5.55;;;1.40;;
25948;SDS011;13961;51.178;4.448;2023-03-14T03:32:39;5.55;;;0.70;;
25948;SDS011;13961;51.178;4.448;2023-03-14T03:35:04;7.43;;;1.00;;
25948;SDS011;13961;51.178;4.448;2023-03-14T03:37:31;10.13;;;1.20;;
25948;SDS011;13961;51.178;4.448;2023-03-14T03:39:58;7.00;;;0.90;;
25948;SDS011;13961;51.178;4.448;2023-03-14T03:42:24;6.53;;;0.90;;
25948;SDS011;13961;51.178;4.448;2023-03-14T03:44:52;4.88;;;1.00;;
25948;SDS011;13961;51.178;4.448;2023-03-14T03:47:18;6.32;;;1.10;;
25948;SDS011;13961;51.178;4.448;2023-03-14T03:49:43;4.40;;;1.10;;
25948;SDS011;13961;51.178;4.448;2023-03-14T03:52:09;6.50;;;1.27;;
25948;SDS011;13961;51.178;4.448;2023-03-14T03:54:35;6.65;;;1.20;;
25948;SDS011;13961;51.178;4.448;2023-03-14T03:57:01;13.68;;;1.50;;
25948;SDS011;13961;51.178;4.448;2023-03-14T03:59:27;9.93;;;1.38;;
25948;SDS011;13961;51.178;4.448;2023-03-14T04:01:52;6.28;;;1.52;;
25948;SDS011;13961;51.178;4.448;2023-03-14T04:04:18;4.82;;;1.58;;
25948;SDS011;13961;51.178;4.448;2023-03-14T04:06:44;6.05;;;1.38;;
25948;SDS011;13961;51.178;4.448;2023-03-14T04:09:10;6.43;;;1.63;;
25948;SDS011;13961;51.178;4.448;2023-03-14T04:11:36;7.53;;;1.63;;
25948;SDS011;13961;51.178;4.448;2023-03-14T04:14:02;8.40;;;1.80;;
25948;SDS011;13961;51.178;4.448;2023-03-14T04:16:28;9.15;;;1.73;;
25948;SDS011;13961;51.178;4.448;2023-03-14T04:18:57;6.85;;;1.50;;
25948;SDS011;13961;51.178;4.448;2023-03-14T04:21:23;9.80;;;1.60;;
25948;SDS011;13961;51.178;4.448;2023-03-14T04:23:49;5.22;;;1.15;;
25948;SDS011;13961;51.178;4.448;2023-03-14T04:26:15;5.97;;;1.50;;
25948;SDS011;13961;51.178;4.448;2023-03-14T04:28:41;5.68;;;1.52;;
25948;SDS011;13961;51.178;4.448;2023-03-14T04:31:08;4.13;;;1.40;;
25948;SDS011;13961;51.178;4.448;2023-03-14T04:33:41;5.03;;;1.40;;
25948;SDS011;13961;51.178;4.448;2023-03-14T04:36:07;15.23;;;1.85;;
25948;SDS011;13961;51.178;4.448;2023-03-14T04:38:34;6.25;;;1.92;;
25948;SDS011;13961;51.178;4.448;2023-03-14T04:41:00;4.55;;;1.35;;
25948;SDS011;13961;51.178;4.448;2023-03-14T04:43:26;7.57;;;1.67;;
25948;SDS011;13961;51.178;4.448;2023-03-14T04:45:55;6.22;;;1.67;;
25948;SDS011;13961;51.178;4.448;2023-03-14T04:48:22;8.13;;;1.95;;
25948;SDS011;13961;51.178;4.448;2023-03-14T04:50:49;6.55;;;2.00;;
25948;SDS011;13961;51.178;4.448;2023-03-14T04:53:15;5.63;;;1.50;;
25948;SDS011;13961;51.178;4.448;2023-03-14T04:55:42;7.57;;;2.38;;
25948;SDS011;13961;51.178;4.448;2023-03-14T04:58:07;6.28;;;1.85;;
25948;SDS011;13961;51.178;4.448;2023-03-14T05:00:33;5.70;;;1.92;;
25948;SDS011;13961;51.178;4.448;2023-03-14T05:02:59;7.57;;;2.03;;
25948;SDS011;13961;51.178;4.448;2023-03-14T05:05:25;9.50;;;2.30;;
25948;SDS011;13961;51.178;4.448;2023-03-14T05:07:50;9.10;;;1.80;;
25948;SDS011;13961;51.178;4.448;2023-03-14T05:10:16;7.28;;;2.25;;
25948;SDS011;13961;51.178;4.448;2023-03-14T05:12:42;6.72;;;2.28;;
25948;SDS011;13961;51.178;4.448;2023-03-14T05:15:08;4.40;;;1.85;;
25948;SDS011;13961;51.178;4.448;2023-03-14T05:17:34;7.25;;;2.42;;
25948;SDS011;13961;51.178;4.448;2023-03-14T05:20:00;6.82;;;2.20;;
25948;SDS011;13961;51.178;4.448;2023-03-14T05:22:29;5.55;;;2.28;;
25948;SDS011;13961;51.178;4.448;2023-03-14T05:24:54;5.82;;;2.60;;
25948;SDS011;13961;51.178;4.448;2023-03-14T05:27:22;8.43;;;2.25;;
25948;SDS011;13961;51.178;4.448;2023-03-14T05:29:48;7.20;;;2.75;;
25948;SDS011;13961;51.178;4.448;2023-03-14T05:32:13;8.57;;;3.35;;
25948;SDS011;13961;51.178;4.448;2023-03-14T05:34:39;11.13;;;3.35;;
25948;SDS011;13961;51.178;4.448;2023-03-14T05:37:05;7.47;;;3.08;;
25948;SDS011;13961;51.178;4.448;2023-03-14T05:39:31;6.72;;;3.30;;
25948;SDS011;13961;51.178;4.448;2023-03-14T05:41:57;10.95;;;2.95;;
25948;SDS011;13961;51.178;4.448;2023-03-14T05:44:23;6.35;;;2.83;;
25948;SDS011;13961;51.178;4.448;2023-03-14T05:46:49;5.47;;;2.72;;
25948;SDS011;13961;51.178;4.448;2023-03-14T05:49:14;6.50;;;2.50;;
25948;SDS011;13961;51.178;4.448;2023-03-14T05:51:40;8.10;;;2.72;;
25948;SDS011;13961;51.178;4.448;2023-03-14T05:54:06;4.25;;;2.60;;
25948;SDS011;13961;51.178;4.448;2023-03-14T05:56:32;6.13;;;3.58;;
25948;SDS011;13961;51.178;4.448;2023-03-14T05:58:57;6.28;;;3.45;;
25948;SDS011;13961;51.178;4.448;2023-03-14T06:01:23;8.90;;;3.10;;
25948;SDS011;13961;51.178;4.448;2023-03-14T06:03:49;6.90;;;3.40;;
25948;SDS011;13961;51.178;4.448;2023-03-14T06:06:15;9.15;;;3.35;;
25948;SDS011;13961;51.178;4.448;2023-03-14T06:08:41;7.90;;;3.80;;
25948;SDS011;13961;51.178;4.448;2023-03-14T06:11:07;6.00;;;2.80;;
25948;SDS011;13961;51.178;4.448;2023-03-14T06:13:34;7.38;;;3.75;;
25948;SDS011;13961;51.178;4.448;2023-03-14T06:15:59;7.75;;;3.67;;
25948;SDS011;13961;51.178;4.448;2023-03-14T06:18:25;6.63;;;4.30;;
25948;SDS011;13961;51.178;4.448;2023-03-14T06:20:53;5.80;;;3.50;;
25948;SDS011;13961;51.178;4.448;2023-03-14T06:23:20;6.75;;;4.07;;
25948;SDS011;13961;51.178;4.448;2023-03-14T06:25:46;5.65;;;2.80;;
25948;SDS011;13961;51.178;4.448;2023-03-14T06:28:12;7.65;;;3.60;;
25948;SDS011;13961;51.178;4.448;2023-03-14T06:30:38;6.43;;;3.50;;
25948;SDS011;13961;51.178;4.448;2023-03-14T06:33:04;6.15;;;3.20;;
25948;SDS011;13961;51.178;4.448;2023-03-14T06:35:29;4.90;;;1.65;;
25948;SDS011;13961;51.178;4.448;2023-03-14T06:37:56;1.83;;;0.80;;
25948;SDS011;13961;51.178;4.448;2023-03-14T06:40:22;1.40;;;0.47;;
25948;SDS011;13961;51.178;4.448;2023-03-14T06:42:48;1.10;;;0.40;;
25948;SDS011;13961;51.178;4.448;2023-03-14T06:45:14;4.93;;;0.70;;
25948;SDS011;13961;51.178;4.448;2023-03-14T06:47:39;5.40;;;0.90;;
25948;SDS011;13961;51.178;4.448;2023-03-14T06:50:06;2.67;;;0.70;;
25948;SDS011;13961;51.178;4.448;2023-03-14T06:52:33;3.90;;;1.05;;
25948;SDS011;13961;51.178;4.448;2023-03-14T06:54:59;3.30;;;1.50;;
25948;SDS011;13961;51.178;4.448;2023-03-14T06:57:25;2.80;;;1.40;;
25948;SDS011;13961;51.178;4.448;2023-03-14T06:59:51;3.92;;;1.50;;
25948;SDS011;13961;51.178;4.448;2023-03-14T07:02:16;5.90;;;1.30;;
25948;SDS011;13961;51.178;4.448;2023-03-14T07:04:42;1.92;;;0.82;;
25948;SDS011;13961;51.178;4.448;2023-03-14T07:07:08;2.03;;;1.05;;
25948;SDS011;13961;51.178;4.448;2023-03-14T07:09:34;3.97;;;1.00;;
25948;SDS011;13961;51.178;4.448;2023-03-14T07:11:59;3.63;;;1.58;;
25948;SDS011;13961;51.178;4.448;2023-03-14T07:14:25;6.97;;;1.88;;
25948;SDS011;13961;51.178;4.448;2023-03-14T07:16:51;5.30;;;1.80;;
25948;SDS011;13961;51.178;4.448;2023-03-14T07:19:17;1.40;;;0.90;;
25948;SDS011;13961;51.178;4.448;2023-03-14T07:21:43;5.55;;;1.00;;
25948;SDS011;13961;51.178;4.448;2023-03-14T07:24:08;8.85;;;1.25;;
25948;SDS011;13961;51.178;4.448;2023-03-14T07:26:34;6.53;;;1.48;;
25948;SDS011;13961;51.178;4.448;2023-03-14T07:29:00;5.57;;;1.20;;
25948;SDS011;13961;51.178;4.448;2023-03-14T07:31:28;7.15;;;1.02;;
25948;SDS011;13961;51.178;4.448;2023-03-14T07:33:54;3.38;;;0.98;;
25948;SDS011;13961;51.178;4.448;2023-03-14T07:36:20;2.67;;;0.70;;
25948;SDS011;13961;51.178;4.448;2023-03-14T07:38:46;3.47;;;0.73;;
25948;SDS011;13961;51.178;4.448;2023-03-14T07:41:12;5.90;;;0.70;;
25948;SDS011;13961;51.178;4.448;2023-03-14T07:43:38;6.55;;;0.63;;
25948;SDS011;13961;51.178;4.448;2023-03-14T07:46:04;2.72;;;0.60;;
25948;SDS011;13961;51.178;4.448;2023-03-14T07:48:30;5.10;;;0.57;;
25948;SDS011;13961;51.178;4.448;2023-03-14T07:50:56;3.25;;;0.82;;
25948;SDS011;13961;51.178;4.448;2023-03-14T07:53:22;5.40;;;0.95;;
25948;SDS011;13961;51.178;4.448;2023-03-14T07:55:49;6.70;;;1.10;;
25948;SDS011;13961;51.178;4.448;2023-03-14T07:58:16;4.35;;;1.00;;
25948;SDS011;13961;51.178;4.448;2023-03-14T08:00:42;7.20;;;1.33;;
25948;SDS011;13961;51.178;4.448;2023-03-14T08:03:08;2.60;;;0.95;;
25948;SDS011;13961;51.178;4.448;2023-03-14T08:05:35;4.50;;;1.33;;
25948;SDS011;13961;51.178;4.448;2023-03-14T08:08:02;3.22;;;0.88;;
25948;SDS011;13961;51.178;4.448;2023-03-14T08:10:28;3.83;;;1.13;;
25948;SDS011;13961;51.178;4.448;2023-03-14T08:12:54;4.05;;;0.77;;
25948;SDS011;13961;51.178;4.448;2023-03-14T08:15:23;4.53;;;1.10;;
25948;SDS011;13961;51.178;4.448;2023-03-14T08:17:49;4.05;;;0.70;;
25948;SDS011;13961;51.178;4.448;2023-03-14T08:20:22;5.85;;;0.80;;
25948;SDS011;13961;51.178;4.448;2023-03-14T08:22:49;1.98;;;0.60;;
25948;SDS011;13961;51.178;4.448;2023-03-14T08:25:15;3.25;;;0.80;;
25948;SDS011;13961;51.178;4.448;2023-03-14T08:27:41;2.72;;;0.50;;
25948;SDS011;13961;51.178;4.448;2023-03-14T08:30:09;4.47;;;1.27;;
25948;SDS011;13961;51.178;4.448;2023-03-14T08:32:36;3.33;;;0.98;;
25948;SDS011;13961;51.178;4.448;2023-03-14T08:35:04;5.30;;;1.30;;
25948;SDS011;13961;51.178;4.448;2023-03-14T08:37:33;3.28;;;0.60;;
25948;SDS011;13961;51.178;4.448;2023-03-14T08:40:03;5.13;;;0.93;;
25948;SDS011;13961;51.178;4.448;2023-03-14T08:42:35;4.32;;;0.90;;
25948;SDS011;13961;51.178;4.448;2023-03-14T08:45:11;4.20;;;1.00;;
25948;SDS011;13961;51.178;4.448;2023-03-14T08:47:38;3.05;;;0.70;;
25948;SDS011;13961;51.178;4.448;2023-03-14T08:50:04;2.40;;;0.50;;
25948;SDS011;13961;51.178;4.448;2023-03-14T08:52:31;12.73;;;0.98;;
25948;SDS011;13961;51.178;4.448;2023-03-14T08:54:58;2.08;;;0.68;;
25948;SDS011;13961;51.178;4.448;2023-03-14T08:57:24;3.47;;;1.15;;
25948;SDS011;13961;51.178;4.448;2023-03-14T08:59:53;5.18;;;0.70;;
25948;SDS011;13961;51.178;4.448;2023-03-14T09:02:20;3.03;;;0.80;;
25948;SDS011;13961;51.178;4.448;2023-03-14T09:04:46;2.60;;;0.70;;
25948;SDS011;13961;51.178;4.448;2023-03-14T09:07:12;2.92;;;0.90;;
25948;SDS011;13961;51.178;4.448;2023-03-14T09:09:38;3.33;;;0.70;;
25948;SDS011;13961;51.178;4.448;2023-03-14T09:12:04;3.17;;;0.90;;
25948;SDS011;13961;51.178;4.448;2023-03-14T09:14:30;2.92;;;0.40;;
25948;SDS011;13961;51.178;4.448;2023-03-14T09:16:57;0.25;;;0.22;;
25948;SDS011;13961;51.178;4.448;2023-03-14T09:19:22;3.88;;;0.50;;
25948;SDS011;13961;51.178;4.448;2023-03-14T09:21:48;0.98;;;0.30;;
25948;SDS011;13961;51.178;4.448;2023-03-14T09:24:14;2.03;;;0.30;;
25948;SDS011;13961;51.178;4.448;2023-03-14T09:26:42;2.33;;;0.28;;
25948;SDS011;13961;51.178;4.448;2023-03-14T09:29:08;1.80;;;0.30;;
25948;SDS011;13961;51.178;4.448;2023-03-14T09:31:35;1.92;;;0.30;;
25948;SDS011;13961;51.178;4.448;2023-03-14T09:34:00;4.28;;;1.08;;
25948;SDS011;13961;51.178;4.448;2023-03-14T09:36:27;0.65;;;0.15;;
25948;SDS011;13961;51.178;4.448;2023-03-14T09:38:53;1.20;;;0.22;;
25948;SDS011;13961;51.178;4.448;2023-03-14T09:41:25;0.40;;;0.30;;
25948;SDS011;13961;51.178;4.448;2023-03-14T09:44:16;2.42;;;0.50;;
25948;SDS011;13961;51.178;4.448;2023-03-14T09:46:44;0.88;;;0.35;;
25948;SDS011;13961;51.178;4.448;2023-03-14T09:49:35;2.55;;;0.30;;
25948;SDS011;13961;51.178;4.448;2023-03-14T09:52:04;0.93;;;0.40;;
25948;SDS011;13961;51.178;4.448;2023-03-14T09:54:39;2.42;;;0.43;;
25948;SDS011;13961;51.178;4.448;2023-03-14T09:57:20;2.53;;;0.40;;
25948;SDS011;13961;51.178;4.448;2023-03-14T09:59:49;1.92;;;0.60;;
25948;SDS011;13961;51.178;4.448;2023-03-14T10:02:21;2.45;;;0.70;;
25948;SDS011;13961;51.178;4.448;2023-03-14T10:04:49;2.88;;;0.43;;
25948;SDS011;13961;51.178;4.448;2023-03-14T10:07:18;1.13;;;0.30;;
25948;SDS011;13961;51.178;4.448;2023-03-14T10:09:53;4.90;;;0.70;;
25948;SDS011;13961;51.178;4.448;2023-03-14T10:12:19;2.90;;;0.52;;
25948;SDS011;13961;51.178;4.448;2023-03-14T10:14:55;2.58;;;0.80;;
25948;SDS011;13961;51.178;4.448;2023-03-14T10:17:21;2.78;;;1.17;;
25948;SDS011;13961;51.178;4.448;2023-03-14T10:19:54;1.90;;;0.93;;
25948;SDS011;13961;51.178;4.448;2023-03-14T10:22:21;2.28;;;1.05;;
25948;SDS011;13961;51.178;4.448;2023-03-14T10:24:55;5.85;;;1.10;;
25948;SDS011;13961;51.178;4.448;2023-03-14T10:27:28;2.72;;;0.70;;
25948;SDS011;13961;51.178;4.448;2023-03-14T10:29:57;1.43;;;0.77;;
25948;SDS011;13961;51.178;4.448;2023-03-14T10:32:34;4.95;;;0.90;;
25948;SDS011;13961;51.178;4.448;2023-03-14T10:40:47;8.80;;;1.00;;
25948;SDS011;13961;51.178;4.448;2023-03-14T10:43:16;3.25;;;0.82;;
25948;SDS011;13961;51.178;4.448;2023-03-14T10:45:56;4.97;;;0.45;;
25948;SDS011;13961;51.178;4.448;2023-03-14T10:53:23;4.78;;;0.45;;
25948;SDS011;13961;51.178;4.448;2023-03-14T10:55:50;3.13;;;0.40;;
25948;SDS011;13961;51.178;4.448;2023-03-14T10:58:18;4.45;;;0.60;;
25948;SDS011;13961;51.178;4.448;2023-03-14T11:00:51;5.28;;;0.80;;
25948;SDS011;13961;51.178;4.448;2023-03-14T11:03:27;4.38;;;0.65;;
25948;SDS011;13961;51.178;4.448;2023-03-14T11:06:01;5.25;;;0.82;;
25948;SDS011;13961;51.178;4.448;2023-03-14T11:11:22;4.53;;;1.02;;
25948;SDS011;13961;51.178;4.448;2023-03-14T11:19:12;5.75;;;1.00;;
25948;SDS011;13961;51.178;4.448;2023-03-14T11:21:51;2.97;;;0.80;;
25948;SDS011;13961;51.178;4.448;2023-03-14T11:25:18;9.98;;;1.27;;
25948;SDS011;13961;51.178;4.448;2023-03-14T11:27:44;10.00;;;1.10;;
25948;SDS011;13961;51.178;4.448;2023-03-14T11:35:28;6.68;;;1.30;;
25948;SDS011;13961;51.178;4.448;2023-03-14T11:38:09;6.30;;;1.25;;
25948;SDS011;13961;51.178;4.448;2023-03-14T11:40:49;10.30;;;1.15;;
25948;SDS011;13961;51.178;4.448;2023-03-14T11:43:18;5.70;;;0.77;;
25948;SDS011;13961;51.178;4.448;2023-03-14T11:45:51;9.05;;;1.63;;
25948;SDS011;13961;51.178;4.448;2023-03-14T11:51:01;6.28;;;1.27;;
25948;SDS011;13961;51.178;4.448;2023-03-14T11:59:25;12.25;;;1.95;;
25948;SDS011;13961;51.178;4.448;2023-03-14T12:04:35;11.75;;;1.73;;
25948;SDS011;13961;51.178;4.448;2023-03-14T12:07:12;12.65;;;1.50;;
25948;SDS011;13961;51.178;4.448;2023-03-14T12:09:45;13.90;;;2.30;;
25948;SDS011;13961;51.178;4.448;2023-03-14T12:12:14;12.70;;;2.35;;
25948;SDS011;13961;51.178;4.448;2023-03-14T12:14:46;15.90;;;1.60;;
25948;SDS011;13961;51.178;4.448;2023-03-14T12:17:26;13.05;;;1.80;;
25948;SDS011;13961;51.178;4.448;2023-03-14T12:20:01;14.13;;;2.40;;
25948;SDS011;13961;51.178;4.448;2023-03-14T12:22:33;9.40;;;1.60;;
25948;SDS011;13961;51.178;4.448;2023-03-14T12:25:17;11.27;;;2.47;;
25948;SDS011;13961;51.178;4.448;2023-03-14T12:35:43;17.27;;;2.10;;
25948;SDS011;13961;51.178;4.448;2023-03-14T12:38:14;16.17;;;2.20;;
25948;SDS011;13961;51.178;4.448;2023-03-14T12:41:04;15.73;;;2.40;;
25948;SDS011;13961;51.178;4.448;2023-03-14T12:46:15;13.15;;;2.33;;
25948;SDS011;13961;51.178;4.448;2023-03-14T12:59:45;14.23;;;2.10;;
25948;SDS011;13961;51.178;4.448;2023-03-14T13:04:49;8.18;;;1.45;;
25948;SDS011;13961;51.178;4.448;2023-03-14T13:15:41;22.70;;;2.33;;
25948;SDS011;13961;51.178;4.448;2023-03-14T13:18:13;5.75;;;1.13;;
25948;SDS011;13961;51.178;4.448;2023-03-14T13:20:51;9.38;;;1.45;;
25948;SDS011;13961;51.178;4.448;2023-03-14T13:23:21;10.50;;;1.80;;
25948;SDS011;13961;51.178;4.448;2023-03-14T13:25:51;10.35;;;1.58;;
25948;SDS011;13961;51.178;4.448;2023-03-14T13:28:17;8.88;;;1.27;;
25948;SDS011;13961;51.178;4.448;2023-03-14T13:30:45;8.13;;;0.98;;
25948;SDS011;13961;51.178;4.448;2023-03-14T13:33:20;7.68;;;1.20;;
25948;SDS011;13961;51.178;4.448;2023-03-14T13:35:48;6.70;;;0.95;;
25948;SDS011;13961;51.178;4.448;2023-03-14T13:38:26;7.63;;;1.17;;
25948;SDS011;13961;51.178;4.448;2023-03-14T13:40:56;6.53;;;1.13;;
25948;SDS011;13961;51.178;4.448;2023-03-14T13:43:30;3.15;;;0.73;;
25948;SDS011;13961;51.178;4.448;2023-03-14T13:48:29;7.05;;;0.88;;
25948;SDS011;13961;51.178;4.448;2023-03-14T13:53:30;8.55;;;1.13;;
25948;SDS011;13961;51.178;4.448;2023-03-14T13:55:56;5.60;;;1.00;;
25948;SDS011;13961;51.178;4.448;2023-03-14T13:58:27;7.97;;;0.95;;
25948;SDS011;13961;51.178;4.448;2023-03-14T14:01:01;10.63;;;1.40;;
25948;SDS011;13961;51.178;4.448;2023-03-14T14:03:36;5.13;;;0.70;;
25948;SDS011;13961;51.178;4.448;2023-03-14T14:06:05;8.32;;;1.50;;
25948;SDS011;13961;51.178;4.448;2023-03-14T14:08:41;6.00;;;1.25;;
25948;SDS011;13961;51.178;4.448;2023-03-14T14:11:08;7.28;;;0.98;;
25948;SDS011;13961;51.178;4.448;2023-03-14T14:13:42;4.43;;;0.65;;
25948;SDS011;13961;51.178;4.448;2023-03-14T14:16:07;0.40;;;0.20;;
25948;SDS011;13961;51.178;4.448;2023-03-14T14:18:34;1.52;;;0.60;;
25948;SDS011;13961;51.178;4.448;2023-03-14T14:21:00;1.85;;;0.60;;
25948;SDS011;13961;51.178;4.448;2023-03-14T14:23:28;2.47;;;0.40;;
25948;SDS011;13961;51.178;4.448;2023-03-14T14:25:55;3.63;;;0.50;;
25948;SDS011;13961;51.178;4.448;2023-03-14T14:28:29;1.02;;;0.32;;
25948;SDS011;13961;51.178;4.448;2023-03-14T14:31:04;0.93;;;0.22;;
25948;SDS011;13961;51.178;4.448;2023-03-14T14:33:46;2.55;;;0.55;;
25948;SDS011;13961;51.178;4.448;2023-03-14T14:36:31;2.88;;;0.50;;
25948;SDS011;13961;51.178;4.448;2023-03-14T14:39:09;3.17;;;0.20;;
25948;SDS011;13961;51.178;4.448;2023-03-14T14:41:45;0.73;;;0.38;;
25948;SDS011;13961;51.178;4.448;2023-03-14T14:44:13;5.88;;;0.65;;
25948;SDS011;13961;51.178;4.448;2023-03-14T14:46:43;1.83;;;0.45;;
25948;SDS011;13961;51.178;4.448;2023-03-14T14:49:10;3.55;;;0.40;;
25948;SDS011;13961;51.178;4.448;2023-03-14T14:51:42;1.67;;;0.50;;
25948;SDS011;13961;51.178;4.448;2023-03-14T14:54:33;2.35;;;0.43;;
25948;SDS011;13961;51.178;4.448;2023-03-14T14:57:12;9.10;;;0.85;;
25948;SDS011;13961;51.178;4.448;2023-03-14T14:59:43;5.18;;;0.90;;
25948;SDS011;13961;51.178;4.448;2023-03-14T15:02:58;5.22;;;1.00;;
25948;SDS011;13961;51.178;4.448;2023-03-14T15:05:16;5.93;;;0.70;;
25948;SDS011;13961;51.178;4.448;2023-03-14T15:07:43;3.88;;;0.88;;
25948;SDS011;13961;51.178;4.448;2023-03-14T15:10:10;4.40;;;0.90;;
25948;SDS011;13961;51.178;4.448;2023-03-14T15:12:40;5.43;;;1.05;;
25948;SDS011;13961;51.178;4.448;2023-03-14T15:15:06;6.97;;;0.88;;
25948;SDS011;13961;51.178;4.448;2023-03-14T15:17:33;7.10;;;1.10;;
25948;SDS011;13961;51.178;4.448;2023-03-14T15:20:01;7.75;;;1.40;;
25948;SDS011;13961;51.178;4.448;2023-03-14T15:22:31;3.72;;;0.82;;
25948;SDS011;13961;51.178;4.448;2023-03-14T15:24:57;8.68;;;1.17;;
25948;SDS011;13961;51.178;4.448;2023-03-14T15:27:23;6.93;;;0.90;;
25948;SDS011;13961;51.178;4.448;2023-03-14T15:29:49;9.20;;;1.27;;
25948;SDS011;13961;51.178;4.448;2023-03-14T15:32:16;7.38;;;0.93;;
25948;SDS011;13961;51.178;4.448;2023-03-14T15:34:44;7.22;;;1.35;;
25948;SDS011;13961;51.178;4.448;2023-03-14T15:37:13;7.55;;;1.38;;
25948;SDS011;13961;51.178;4.448;2023-03-14T15:39:41;4.28;;;0.85;;
25948;SDS011;13961;51.178;4.448;2023-03-14T15:42:07;7.03;;;0.93;;
25948;SDS011;13961;51.178;4.448;2023-03-14T15:44:33;7.45;;;0.80;;
25948;SDS011;13961;51.178;4.448;2023-03-14T15:46:59;8.40;;;0.80;;
25948;SDS011;13961;51.178;4.448;2023-03-14T15:49:25;9.82;;;1.33;;
25948;SDS011;13961;51.178;4.448;2023-03-14T15:51:51;6.82;;;1.05;;
25948;SDS011;13961;51.178;4.448;2023-03-14T15:54:17;8.95;;;1.27;;
25948;SDS011;13961;51.178;4.448;2023-03-14T15:56:42;4.70;;;1.10;;
25948;SDS011;13961;51.178;4.448;2023-03-14T15:59:08;5.10;;;0.82;;
25948;SDS011;13961;51.178;4.448;2023-03-14T16:01:34;7.90;;;1.38;;
25948;SDS011;13961;51.178;4.448;2023-03-14T16:04:00;6.13;;;1.00;;
25948;SDS011;13961;51.178;4.448;2023-03-14T16:06:29;4.55;;;0.80;;
25948;SDS011;13961;51.178;4.448;2023-03-14T16:08:56;6.57;;;0.93;;
25948;SDS011;13961;51.178;4.448;2023-03-14T16:11:21;5.82;;;0.90;;